Time;durP1;ratioP1;P1;durP2;ratioP2;P2;SDS_P1;SDS_P2;PMS_P1;PMS_P2;Temp;Humidity;BMP_temperature;BMP_pressure;BME280_temperature;BME280_humidity;BME280_pressure;Samples;Min_cycle;Max_cycle;Signal;HPM_P1;HPM_P2
2022/04/13 00:00:56;;;;;;;;;;;20.00;34.10;;;;;;8369074;28;19927;-47
2022/04/13 00:04:56;;;;;;;;;;;20.00;34.10;;;;;;8368697;28;19967;-47
2022/04/13 00:08:56;;;;;;;;;;;20.00;34.10;;;;;;8368085;28;19917;-48
2022/04/13 00:12:57;;;;;;;;;;;20.10;34.20;;;;;;8368858;28;19920;-47
2022/04/13 00:16:57;;;;;;;;;;;20.00;34.10;;;;;;8368407;28;19924;-50
2022/04/13 00:20:58;;;;;;;;;;;20.00;34.20;;;;;;8367745;28;19923;-46
2022/04/13 00:24:58;;;;;;;;;;;20.00;34.20;;;;;;8368049;28;20016;-47
2022/04/13 00:28:59;;;;;;;;;;;20.00;34.20;;;;;;8367903;28;19984;-46
2022/04/13 00:32:59;;;;;;;;;;;20.00;34.20;;;;;;8367536;28;19917;-47
2022/04/13 00:37:00;;;;;;;;;;;20.00;34.20;;;;;;8367858;28;19916;-47
2022/04/13 00:41:00;;;;;;;;;;;20.00;34.20;;;;;;8367489;28;20015;-50
2022/04/13 00:45:01;;;;;;;;;;;20.00;34.30;;;;;;8367179;28;20329;-47
2022/04/13 00:49:02;;;;;;;;;;;20.00;34.20;;;;;;8367283;28;20281;-47
2022/04/13 00:53:04;;;;;;;;;;;20.00;34.20;;;;;;8367529;28;19917;-48
2022/04/13 00:57:06;;;;;;;;;;;19.90;34.20;;;;;;8365913;28;20396;-46
2022/04/13 01:01:07;;;;;;;;;;;19.90;34.20;;;;;;8366860;28;20020;-46
2022/04/13 01:05:08;;;;;;;;;;;20.00;34.30;;;;;;8347869;28;19921;-47
2022/04/13 01:09:10;;;;;;;;;;;20.00;34.30;;;;;;8333757;28;19917;-46
2022/04/13 01:13:11;;;;;;;;;;;20.00;34.30;;;;;;8333818;28;19917;-47
2022/04/13 01:17:12;;;;;;;;;;;19.90;34.30;;;;;;8333688;28;19917;-46
2022/04/13 01:21:15;;;;;;;;;;;20.00;34.30;;;;;;8332767;28;19931;-47
2022/04/13 01:25:16;;;;;;;;;;;19.90;34.30;;;;;;8333227;28;20008;-47
2022/04/13 01:29:16;;;;;;;;;;;19.90;34.30;;;;;;8333203;28;20362;-46
2022/04/13 01:33:17;;;;;;;;;;;19.90;34.30;;;;;;8333157;28;19996;-46
2022/04/13 01:37:18;;;;;;;;;;;19.90;34.80;;;;;;8332872;28;20342;-46
2022/04/13 01:41:18;;;;;;;;;;;19.90;34.30;;;;;;8332854;28;19914;-49
2022/04/13 01:45:22;;;;;;;;;;;19.90;34.30;;;;;;8332107;28;19925;-46
2022/04/13 01:49:23;;;;;;;;;;;19.90;34.40;;;;;;8332665;28;19917;-47
2022/04/13 01:53:24;;;;;;;;;;;19.80;34.30;;;;;;8332197;28;19917;-50
2022/04/13 01:57:24;;;;;;;;;;;19.80;34.30;;;;;;8332007;28;20048;-47
2022/04/13 02:01:24;;;;;;;;;;;19.80;34.30;;;;;;8331976;28;19956;-49
2022/04/13 02:05:25;;;;;;;;;;;19.80;34.40;;;;;;8331276;28;20028;-47
2022/04/13 02:09:26;;;;;;;;;;;19.80;34.40;;;;;;8330831;28;19922;-47
2022/04/13 02:13:26;;;;;;;;;;;19.80;34.40;;;;;;8332098;28;19917;-51
2022/04/13 02:17:27;;;;;;;;;;;19.80;34.40;;;;;;8331037;28;19932;-48
2022/04/13 02:21:27;;;;;;;;;;;19.80;34.40;;;;;;8331635;28;19917;-49
2022/04/13 02:25:28;;;;;;;;;;;19.80;34.40;;;;;;8331195;28;19925;-49
2022/04/13 02:29:28;;;;;;;;;;;19.80;34.40;;;;;;8331012;28;19920;-47
2022/04/13 02:33:31;;;;;;;;;;;19.80;34.40;;;;;;8331126;28;20362;-46
2022/04/13 02:37:31;;;;;;;;;;;19.80;34.40;;;;;;8331299;28;19964;-47
2022/04/13 02:41:32;;;;;;;;;;;19.80;34.50;;;;;;8330456;28;19959;-46
2022/04/13 02:45:32;;;;;;;;;;;19.80;34.50;;;;;;8330658;28;19921;-47
2022/04/13 02:49:33;;;;;;;;;;;19.80;34.50;;;;;;8330874;28;19917;-46
2022/04/13 02:53:34;;;;;;;;;;;19.70;34.50;;;;;;8329854;28;20419;-48
2022/04/13 02:57:34;;;;;;;;;;;19.80;34.50;;;;;;8330684;28;19917;-48
2022/04/13 03:01:35;;;;;;;;;;;19.80;35.10;;;;;;8330446;28;19922;-47
2022/04/13 03:05:36;;;;;;;;;;;19.70;34.50;;;;;;8329743;28;19925;-47
2022/04/13 03:09:37;;;;;;;;;;;19.70;34.50;;;;;;8330925;28;20366;-47
2022/04/13 03:13:38;;;;;;;;;;;19.70;34.50;;;;;;8330296;28;19960;-49
2022/04/13 03:17:38;;;;;;;;;;;19.70;34.50;;;;;;8329803;28;20012;-47
2022/04/13 03:21:39;;;;;;;;;;;19.70;34.50;;;;;;8329944;28;19999;-47
2022/04/13 03:25:39;;;;;;;;;;;19.70;34.50;;;;;;8330095;28;19925;-47
2022/04/13 03:29:40;;;;;;;;;;;19.70;34.50;;;;;;8329978;28;20863;-47
2022/04/13 03:33:40;;;;;;;;;;;19.70;34.50;;;;;;8330122;28;19917;-51
2022/04/13 03:37:41;;;;;;;;;;;19.70;34.50;;;;;;8329829;28;19921;-48
2022/04/13 03:41:41;;;;;;;;;;;19.70;34.50;;;;;;8329351;28;19925;-49
2022/04/13 03:45:42;;;;;;;;;;;19.70;34.50;;;;;;8329899;28;19933;-48
2022/04/13 03:49:42;;;;;;;;;;;19.70;34.50;;;;;;8330064;28;20489;-48
2022/04/13 03:53:42;;;;;;;;;;;19.70;34.50;;;;;;8329214;28;19921;-47
2022/04/13 03:57:43;;;;;;;;;;;19.70;34.50;;;;;;8329729;28;20290;-48
2022/04/13 04:01:43;;;;;;;;;;;19.70;34.50;;;;;;8329713;28;19960;-47
2022/04/13 04:05:44;;;;;;;;;;;19.70;34.50;;;;;;8328974;28;19936;-47
2022/04/13 04:09:44;;;;;;;;;;;19.70;34.40;;;;;;8329745;28;19913;-50
2022/04/13 04:13:45;;;;;;;;;;;19.70;34.50;;;;;;8329266;28;19921;-48
2022/04/13 04:17:45;;;;;;;;;;;19.70;34.40;;;;;;8328834;28;20413;-47
2022/04/13 04:21:46;;;;;;;;;;;19.70;34.40;;;;;;8329575;28;19917;-47
2022/04/13 04:25:46;;;;;;;;;;;19.70;34.40;;;;;;8329445;28;19925;-47
2022/04/13 04:29:47;;;;;;;;;;;19.70;34.40;;;;;;8328910;28;20395;-46
2022/04/13 04:33:47;;;;;;;;;;;19.70;34.40;;;;;;8334271;28;19979;-48
2022/04/13 04:37:47;;;;;;;;;;;19.70;34.40;;;;;;8334681;28;19917;-46
2022/04/13 04:41:48;;;;;;;;;;;19.70;34.50;;;;;;8334078;28;20008;-47
2022/04/13 04:45:48;;;;;;;;;;;19.70;34.40;;;;;;8334627;28;19925;-48
2022/04/13 04:49:49;;;;;;;;;;;19.60;34.40;;;;;;8334800;28;19935;-48
2022/04/13 04:53:49;;;;;;;;;;;19.60;34.40;;;;;;8333810;28;19921;-47
2022/04/13 04:57:51;;;;;;;;;;;19.60;34.40;;;;;;8334166;28;19917;-47
2022/04/13 05:01:51;;;;;;;;;;;19.60;34.40;;;;;;8334165;28;19917;-47
2022/04/13 05:05:52;;;;;;;;;;;19.60;34.40;;;;;;8333389;28;19940;-46
2022/04/13 05:09:52;;;;;;;;;;;19.60;34.40;;;;;;8334576;28;19936;-47
2022/04/13 05:13:53;;;;;;;;;;;19.60;34.40;;;;;;8333658;28;19917;-47
2022/04/13 05:17:53;;;;;;;;;;;19.60;34.40;;;;;;8333054;28;20321;-47
2022/04/13 05:21:54;;;;;;;;;;;19.60;34.40;;;;;;8333358;28;19972;-48
2022/04/13 05:25:54;;;;;;;;;;;19.60;34.40;;;;;;8333337;28;19928;-47
2022/04/13 05:29:55;;;;;;;;;;;19.60;34.40;;;;;;8332941;28;19946;-48
2022/04/13 05:33:55;;;;;;;;;;;19.60;34.40;;;;;;8333011;28;19921;-46
2022/04/13 05:37:56;;;;;;;;;;;19.60;34.40;;;;;;8332908;28;19928;-47
2022/04/13 05:41:56;;;;;;;;;;;19.60;34.40;;;;;;8331873;28;19940;-47
2022/04/13 05:45:57;;;;;;;;;;;19.60;34.40;;;;;;8332768;28;19975;-47
2022/04/13 05:49:57;;;;;;;;;;;19.60;34.40;;;;;;8332872;28;19966;-48
2022/04/13 05:53:58;;;;;;;;;;;19.60;34.40;;;;;;8331726;28;19921;-49
2022/04/13 05:57:58;;;;;;;;;;;19.60;34.40;;;;;;8332137;28;20364;-47
2022/04/13 06:01:59;;;;;;;;;;;19.60;34.40;;;;;;8332082;28;19917;-47
2022/04/13 06:05:59;;;;;;;;;;;19.70;34.40;;;;;;8331228;28;19921;-52
2022/04/13 06:10:01;;;;;;;;;;;19.70;34.40;;;;;;8332294;28;19917;-51
2022/04/13 06:14:02;;;;;;;;;;;19.70;34.30;;;;;;8331643;28;19924;-48
2022/04/13 06:18:02;;;;;;;;;;;19.70;34.30;;;;;;8330950;28;19917;-49
2022/04/13 06:22:03;;;;;;;;;;;19.70;34.30;;;;;;8331340;28;19917;-48
2022/04/13 06:26:03;;;;;;;;;;;19.70;34.30;;;;;;8331638;28;20306;-48
2022/04/13 06:30:04;;;;;;;;;;;19.70;34.20;;;;;;8330720;28;19940;-49
2022/04/13 06:34:04;;;;;;;;;;;19.80;34.20;;;;;;8330943;28;20400;-51
2022/04/13 06:38:05;;;;;;;;;;;19.70;34.10;;;;;;8336182;28;19924;-49
2022/04/13 06:42:05;;;;;;;;;;;19.80;34.10;;;;;;8355239;28;20148;-47
2022/04/13 06:46:06;;;;;;;;;;;19.80;34.10;;;;;;8363902;28;20397;-48
2022/04/13 06:50:08;;;;;;;;;;;19.90;34.10;;;;;;8363700;28;19921;-47
2022/04/13 06:54:08;;;;;;;;;;;19.90;34.00;;;;;;8362359;28;19928;-47
2022/04/13 06:58:08;;;;;;;;;;;19.90;33.90;;;;;;8333959;28;19921;-47
2022/04/13 07:02:12;;;;;;;;;;;19.90;34.00;;;;;;8329626;28;20377;-48
2022/04/13 07:06:13;;;;;;;;;;;19.90;34.20;;;;;;8339432;28;19929;-49
2022/04/13 07:10:13;;;;;;;;;;;19.90;34.40;;;;;;8338103;28;19982;-47
2022/04/13 07:14:14;;;;;;;;;;;20.00;34.20;;;;;;8362966;28;19917;-48
2022/04/13 07:18:14;;;;;;;;;;;19.90;34.10;;;;;;8362273;28;19924;-48
2022/04/13 07:22:15;;;;;;;;;;;20.00;34.10;;;;;;8362488;28;20293;-48
2022/04/13 07:26:15;;;;;;;;;;;20.00;34.10;;;;;;8362952;28;20163;-48
2022/04/13 07:30:16;;;;;;;;;;;19.90;34.00;;;;;;8362238;28;19921;-47
2022/04/13 07:34:16;;;;;;;;;;;20.00;34.00;;;;;;8362812;28;19924;-47
2022/04/13 07:38:17;;;;;;;;;;;20.00;34.00;;;;;;8362675;28;20281;-45
2022/04/13 07:42:21;;;;;;;;;;;20.00;34.00;;;;;;8362280;28;19917;-46
2022/04/13 07:46:21;;;;;;;;;;;20.00;34.00;;;;;;8362603;28;19921;-51
2022/04/13 07:50:22;;;;;;;;;;;20.00;34.00;;;;;;8362109;28;19916;-46
2022/04/13 07:54:22;;;;;;;;;;;20.00;34.00;;;;;;8362657;28;19923;-49
2022/04/13 07:58:23;;;;;;;;;;;20.00;34.20;;;;;;8362848;28;19921;-47
2022/04/13 08:02:23;;;;;;;;;;;20.00;34.30;;;;;;8361827;28;20392;-47
2022/04/13 08:06:24;;;;;;;;;;;20.00;34.10;;;;;;8366010;28;19928;-46
2022/04/13 08:10:24;;;;;;;;;;;20.00;34.10;;;;;;8368826;28;20004;-47
2022/04/13 08:14:25;;;;;;;;;;;20.00;34.10;;;;;;8368288;28;19920;-46
2022/04/13 08:18:25;;;;;;;;;;;20.00;34.10;;;;;;8368204;28;19931;-46
2022/04/13 08:22:26;;;;;;;;;;;20.00;34.10;;;;;;8368231;28;20298;-51
2022/04/13 08:26:27;;;;;;;;;;;20.00;34.10;;;;;;8367924;28;19929;-46
2022/04/13 08:30:27;;;;;;;;;;;20.00;34.10;;;;;;8367866;28;19987;-47
2022/04/13 08:34:27;;;;;;;;;;;20.10;34.20;;;;;;8367850;28;20000;-46
2022/04/13 08:38:28;;;;;;;;;;;20.10;34.20;;;;;;8367106;28;20129;-46
2022/04/13 08:42:28;;;;;;;;;;;20.10;34.20;;;;;;8367530;28;19931;-46
2022/04/13 08:46:29;;;;;;;;;;;20.10;34.20;;;;;;8367481;28;19960;-47
2022/04/13 08:50:30;;;;;;;;;;;20.10;34.10;;;;;;8366829;28;20324;-48
2022/04/13 08:54:31;;;;;;;;;;;20.10;34.10;;;;;;8367197;28;19939;-47
2022/04/13 08:58:47;;;;;;;;;;;20.10;34.10;;;;;;8367415;28;20362;-47
2022/04/13 09:02:48;;;;;;;;;;;20.10;34.10;;;;;;8366524;28;19917;-50
2022/04/13 09:06:48;;;;;;;;;;;20.20;34.20;;;;;;8367184;28;19921;-47
2022/04/13 09:10:52;;;;;;;;;;;20.20;34.20;;;;;;8366646;28;19967;-49
2022/04/13 09:14:53;;;;;;;;;;;20.20;34.20;;;;;;8366273;28;19917;-48
2022/04/13 09:18:53;;;;;;;;;;;20.20;34.20;;;;;;8366004;28;19917;-46
2022/04/13 09:22:58;;;;;;;;;;;20.20;34.20;;;;;;8366415;28;19943;-47
2022/04/13 09:26:58;;;;;;;;;;;20.20;34.20;;;;;;8365988;28;20449;-47
2022/04/13 09:31:00;;;;;;;;;;;20.20;34.10;;;;;;8366055;28;19924;-46
2022/04/13 09:35:01;;;;;;;;;;;20.30;34.20;;;;;;8365997;28;19916;-46
2022/04/13 09:39:01;;;;;;;;;;;20.30;34.20;;;;;;8365242;28;20328;-46
2022/04/13 09:43:06;;;;;;;;;;;20.30;34.20;;;;;;8365636;28;19917;-47
2022/04/13 09:47:07;;;;;;;;;;;20.30;34.20;;;;;;8365396;28;19925;-47
2022/04/13 09:51:08;;;;;;;;;;;20.30;34.10;;;;;;8364738;28;19946;-47
2022/04/13 09:55:09;;;;;;;;;;;20.30;34.10;;;;;;8365406;28;20392;-47
2022/04/13 09:59:10;;;;;;;;;;;20.40;34.10;;;;;;8365399;28;19921;-46
2022/04/13 10:03:13;;;;;;;;;;;20.40;34.10;;;;;;8364445;28;19924;-47
2022/04/13 10:07:15;;;;;;;;;;;20.40;34.60;;;;;;8363948;28;19921;-47
2022/04/13 10:11:16;;;;;;;;;;;20.40;34.10;;;;;;8364718;28;20305;-47
2022/04/13 10:15:16;;;;;;;;;;;20.40;34.10;;;;;;8364086;28;19966;-47
2022/04/13 10:19:20;;;;;;;;;;;20.50;34.20;;;;;;8364684;28;20011;-47
2022/04/13 10:23:20;;;;;;;;;;;20.50;34.10;;;;;;8364672;28;20439;-47
2022/04/13 10:27:24;;;;;;;;;;;20.50;34.10;;;;;;8363904;28;19952;-46
2022/04/13 10:31:25;;;;;;;;;;;20.50;34.10;;;;;;8363268;28;19917;-48
2022/04/13 10:35:26;;;;;;;;;;;20.60;34.10;;;;;;8363443;28;20088;-51
2022/04/13 10:39:28;;;;;;;;;;;20.50;34.00;;;;;;8364209;28;19925;-46
2022/04/13 10:43:29;;;;;;;;;;;20.60;34.00;;;;;;8363866;28;19917;-49
2022/04/13 10:47:57;;;;;;;;;;;20.60;34.00;;;;;;8363112;28;19925;-49
2022/04/13 10:52:01;;;;;;;;;;;20.60;34.00;;;;;;8360526;28;20007;-47
2022/04/13 10:56:03;;;;;;;;;;;20.70;34.00;;;;;;8363192;28;19970;-49
2022/04/13 11:00:05;;;;;;;;;;;20.70;34.00;;;;;;8353142;28;21932;-52
2022/04/13 11:04:07;;;;;;;;;;;20.70;34.00;;;;;;8361625;28;19912;-47
2022/04/13 11:08:14;;;;;;;;;;;20.70;34.00;;;;;;8363104;28;19924;-49
2022/04/13 11:12:14;;;;;;;;;;;20.70;33.90;;;;;;8362786;28;19916;-50
2022/04/13 11:16:25;;;;;;;;;;;20.70;33.90;;;;;;8362881;28;19924;-46
2022/04/13 11:20:26;;;;;;;;;;;20.80;34.00;;;;;;8362474;28;20459;-49
2022/04/13 11:24:30;;;;;;;;;;;20.80;34.00;;;;;;8367728;28;19986;-47
2022/04/13 11:28:34;;;;;;;;;;;20.80;33.90;;;;;;8389083;28;19921;-49
2022/04/13 11:32:36;;;;;;;;;;;20.90;34.00;;;;;;8329726;28;19924;-48
2022/04/13 11:36:49;;;;;;;;;;;20.90;33.90;;;;;;8329787;28;20311;-47
2022/04/13 11:41:03;;;;;;;;;;;20.90;34.00;;;;;;8332406;28;19951;-49
2022/04/13 11:45:05;;;;;;;;;;;20.90;33.90;;;;;;8335982;28;20436;-47
2022/04/13 11:49:10;;;;;;;;;;;20.90;33.90;;;;;;8336477;28;19921;-51
2022/04/13 11:53:10;;;;;;;;;;;20.90;33.80;;;;;;8336304;28;20271;-49
2022/04/13 11:57:11;;;;;;;;;;;21.00;33.90;;;;;;8335549;28;19921;-47
2022/04/13 12:01:11;;;;;;;;;;;21.00;33.90;;;;;;8336269;28;19928;-48
2022/04/13 12:05:13;;;;;;;;;;;21.00;33.80;;;;;;8335938;28;19924;-48
2022/04/13 12:09:14;;;;;;;;;;;21.00;33.90;;;;;;8335607;28;19917;-48
2022/04/13 12:13:14;;;;;;;;;;;21.00;33.80;;;;;;8335923;28;19919;-48
2022/04/13 12:17:15;;;;;;;;;;;21.00;33.80;;;;;;8335467;28;19917;-49
2022/04/13 12:21:17;;;;;;;;;;;21.10;33.90;;;;;;8335025;28;19995;-47
2022/04/13 12:25:18;;;;;;;;;;;21.10;33.90;;;;;;8335349;28;19956;-49
2022/04/13 12:29:22;;;;;;;;;;;21.10;33.90;;;;;;8335275;28;19917;-48
2022/04/13 12:33:23;;;;;;;;;;;21.10;33.80;;;;;;8335129;28;19949;-51
2022/04/13 12:37:24;;;;;;;;;;;21.10;33.80;;;;;;8335058;28;20393;-46
2022/04/13 12:41:27;;;;;;;;;;;21.10;33.80;;;;;;8334279;28;19922;-47
2022/04/13 12:45:28;;;;;;;;;;;21.10;33.80;;;;;;8334456;28;19936;-47
2022/04/13 12:49:31;;;;;;;;;;;21.20;33.90;;;;;;8334432;28;19921;-46
2022/04/13 12:53:43;;;;;;;;;;;21.20;33.90;;;;;;8332882;28;19923;-49
2022/04/13 12:57:44;;;;;;;;;;;21.20;33.90;;;;;;8334262;28;19921;-46
2022/04/13 13:01:46;;;;;;;;;;;21.20;33.90;;;;;;8358913;28;20347;-47
2022/04/13 13:05:47;;;;;;;;;;;21.20;33.90;;;;;;8364893;28;20429;-50
2022/04/13 13:09:55;;;;;;;;;;;21.30;33.90;;;;;;8366785;28;19921;-48
2022/04/13 13:14:05;;;;;;;;;;;21.30;33.90;;;;;;8366492;28;19913;-50
2022/04/13 13:18:08;;;;;;;;;;;21.30;33.90;;;;;;8366093;28;19913;-49
2022/04/13 13:22:14;;;;;;;;;;;21.30;33.90;;;;;;8366339;28;20012;-46
2022/04/13 13:26:23;;;;;;;;;;;21.30;33.90;;;;;;8365841;28;19963;-48
2022/04/13 13:30:24;;;;;;;;;;;21.30;33.90;;;;;;8366253;28;20370;-49
2022/04/13 13:34:24;;;;;;;;;;;21.30;33.90;;;;;;8366367;28;19924;-48
2022/04/13 13:38:30;;;;;;;;;;;21.30;33.90;;;;;;8365767;28;19955;-49
2022/04/13 13:42:43;;;;;;;;;;;21.30;33.90;;;;;;8370164;28;19928;-49
2022/04/13 13:46:44;;;;;;;;;;;21.30;33.90;;;;;;8365700;28;19929;-47
2022/04/13 13:50:44;;;;;;;;;;;21.40;33.90;;;;;;8365119;28;20289;-48
2022/04/13 13:54:45;;;;;;;;;;;21.40;33.90;;;;;;8365455;28;19920;-46
2022/04/13 13:58:45;;;;;;;;;;;21.40;33.90;;;;;;8365722;28;19970;-47
2022/04/13 14:02:55;;;;;;;;;;;21.40;33.90;;;;;;8364558;28;19920;-48
2022/04/13 14:06:55;;;;;;;;;;;21.40;33.90;;;;;;8365051;28;19931;-52
2022/04/13 14:10:56;;;;;;;;;;;21.40;33.90;;;;;;8364814;28;20270;-50
2022/04/13 14:14:58;;;;;;;;;;;21.40;33.90;;;;;;8363395;28;21319;-52
2022/04/13 14:18:58;;;;;;;;;;;21.40;33.80;;;;;;8364643;28;19920;-49
2022/04/13 14:22:59;;;;;;;;;;;21.40;33.80;;;;;;8364630;28;20378;-49
2022/04/13 14:26:59;;;;;;;;;;;21.40;33.80;;;;;;8363922;28;19925;-48
2022/04/13 14:31:00;;;;;;;;;;;21.40;33.80;;;;;;8364570;28;19963;-46
2022/04/13 14:35:01;;;;;;;;;;;21.50;33.90;;;;;;8364226;28;19917;-46
2022/04/13 14:39:01;;;;;;;;;;;21.50;33.90;;;;;;8363772;28;19913;-48
2022/04/13 14:43:02;;;;;;;;;;;21.50;33.90;;;;;;8364159;28;20384;-48
2022/04/13 14:47:02;;;;;;;;;;;21.50;33.90;;;;;;8363827;28;19928;-47
2022/04/13 14:51:03;;;;;;;;;;;21.50;33.90;;;;;;8363224;28;19959;-49
2022/04/13 14:55:04;;;;;;;;;;;21.50;34.10;;;;;;8363847;28;19994;-48
2022/04/13 14:59:05;;;;;;;;;;;21.50;33.90;;;;;;8364124;28;20370;-49
2022/04/13 15:03:05;;;;;;;;;;;21.60;34.00;;;;;;8362884;28;19917;-48
2022/04/13 15:07:06;;;;;;;;;;;21.50;33.90;;;;;;8363279;28;19925;-47
2022/04/13 15:11:06;;;;;;;;;;;21.60;33.90;;;;;;8363310;28;19931;-48
2022/04/13 15:15:08;;;;;;;;;;;21.60;33.90;;;;;;8362223;28;19959;-47
2022/04/13 15:19:09;;;;;;;;;;;21.60;33.90;;;;;;8363573;28;19913;-50
2022/04/13 15:23:10;;;;;;;;;;;21.60;33.90;;;;;;8362959;28;19999;-48
2022/04/13 15:27:10;;;;;;;;;;;21.60;33.90;;;;;;8362453;28;19925;-48
2022/04/13 15:31:11;;;;;;;;;;;21.60;33.90;;;;;;8362843;28;20019;-48
2022/04/13 15:35:11;;;;;;;;;;;21.60;33.90;;;;;;8362838;28;19917;-47
2022/04/13 15:39:12;;;;;;;;;;;21.60;33.90;;;;;;8362595;28;19919;-47
2022/04/13 15:43:13;;;;;;;;;;;21.60;33.80;;;;;;8362922;28;19967;-47
2022/04/13 15:47:17;;;;;;;;;;;21.60;33.80;;;;;;8362741;28;19932;-46
2022/04/13 15:51:18;;;;;;;;;;;21.60;33.80;;;;;;8362218;28;19921;-50
2022/04/13 15:55:22;;;;;;;;;;;21.60;33.80;;;;;;8362861;28;19917;-47
2022/04/13 15:59:23;;;;;;;;;;;21.60;33.80;;;;;;8362626;28;19963;-47
2022/04/13 16:03:23;;;;;;;;;;;21.70;33.80;;;;;;8362301;28;19916;-47
2022/04/13 16:07:23;;;;;;;;;;;21.60;33.70;;;;;;8361306;28;20020;-51
2022/04/13 16:11:25;;;;;;;;;;;21.60;33.80;;;;;;8361675;28;19940;-47
2022/04/13 16:15:25;;;;;;;;;;;21.60;33.80;;;;;;8362125;28;19916;-49
2022/04/13 16:19:26;;;;;;;;;;;21.60;33.70;;;;;;8362474;28;19917;-47
2022/04/13 16:23:26;;;;;;;;;;;21.60;33.70;;;;;;8361716;28;19921;-46
2022/04/13 16:27:27;;;;;;;;;;;21.60;33.70;;;;;;8365161;28;19928;-49
2022/04/13 16:31:27;;;;;;;;;;;21.60;33.70;;;;;;8368079;28;19952;-47
2022/04/13 16:35:28;;;;;;;;;;;21.70;33.80;;;;;;8367467;28;19964;-47
2022/04/13 16:39:28;;;;;;;;;;;21.60;33.80;;;;;;8368432;28;19913;-48
2022/04/13 16:43:29;;;;;;;;;;;21.60;33.80;;;;;;8367910;28;19917;-51
2022/04/13 16:47:31;;;;;;;;;;;21.60;33.80;;;;;;8367084;28;19925;-51
2022/04/13 16:51:32;;;;;;;;;;;21.60;33.80;;;;;;8367600;28;20376;-47
2022/04/13 16:55:32;;;;;;;;;;;21.60;33.80;;;;;;8367349;28;19913;-49
2022/04/13 16:59:33;;;;;;;;;;;21.60;33.80;;;;;;8367244;28;20019;-48
2022/04/13 17:03:33;;;;;;;;;;;21.70;33.80;;;;;;8366815;28;19921;-47
2022/04/13 17:07:34;;;;;;;;;;;21.70;33.80;;;;;;8366766;28;19932;-48
2022/04/13 17:11:34;;;;;;;;;;;21.60;33.80;;;;;;8366393;28;19917;-49
2022/04/13 17:15:35;;;;;;;;;;;21.60;33.80;;;;;;8366805;28;20277;-46
2022/04/13 17:19:35;;;;;;;;;;;21.60;33.80;;;;;;8366843;28;19966;-50
2022/04/13 17:23:36;;;;;;;;;;;21.60;33.80;;;;;;8365962;28;19917;-46
2022/04/13 17:27:36;;;;;;;;;;;21.60;33.80;;;;;;8366440;28;19925;-48
2022/04/13 17:31:37;;;;;;;;;;;21.60;33.90;;;;;;8366235;28;19921;-46
2022/04/13 17:35:37;;;;;;;;;;;21.70;33.80;;;;;;8365526;28;19913;-47
2022/04/13 17:39:38;;;;;;;;;;;21.70;33.80;;;;;;8365661;28;19912;-48
2022/04/13 17:43:38;;;;;;;;;;;21.60;33.70;;;;;;8365848;28;20328;-46
2022/04/13 17:47:39;;;;;;;;;;;21.60;33.80;;;;;;8365109;28;19925;-46
2022/04/13 17:51:39;;;;;;;;;;;21.60;33.80;;;;;;8365069;28;19971;-47
2022/04/13 17:55:43;;;;;;;;;;;21.60;33.80;;;;;;8365587;28;19913;-48
2022/04/13 17:59:43;;;;;;;;;;;21.60;33.90;;;;;;8365146;28;20271;-48
2022/04/13 18:03:44;;;;;;;;;;;21.60;33.80;;;;;;8365176;28;20058;-47
2022/04/13 18:07:44;;;;;;;;;;;21.60;33.90;;;;;;8364841;28;19925;-47
2022/04/13 18:11:45;;;;;;;;;;;21.60;33.90;;;;;;8364547;28;19928;-49
2022/04/13 18:15:45;;;;;;;;;;;21.60;33.80;;;;;;8365314;28;20278;-46
2022/04/13 18:19:46;;;;;;;;;;;21.60;33.80;;;;;;8364749;28;20439;-48
2022/04/13 18:23:47;;;;;;;;;;;21.60;33.80;;;;;;8364200;28;20404;-46
2022/04/13 18:27:47;;;;;;;;;;;21.60;33.80;;;;;;8364460;28;19982;-46
2022/04/13 18:31:47;;;;;;;;;;;21.60;33.80;;;;;;8364450;28;19920;-48
2022/04/13 18:35:48;;;;;;;;;;;21.60;33.80;;;;;;8364006;28;19916;-47
2022/04/13 18:39:48;;;;;;;;;;;21.60;33.90;;;;;;8364181;28;20058;-46
2022/04/13 18:43:49;;;;;;;;;;;21.60;33.80;;;;;;8363811;28;19925;-46
2022/04/13 18:47:50;;;;;;;;;;;21.60;33.80;;;;;;8363446;28;19947;-47
2022/04/13 18:51:50;;;;;;;;;;;21.60;33.80;;;;;;8362783;28;19913;-47
2022/04/13 18:55:51;;;;;;;;;;;21.50;33.80;;;;;;8364023;28;19940;-47
2022/04/13 18:59:52;;;;;;;;;;;21.60;33.90;;;;;;8363549;28;20373;-46
2022/04/13 19:03:52;;;;;;;;;;;21.60;33.90;;;;;;8363873;28;19917;-47
2022/04/13 19:07:55;;;;;;;;;;;21.60;34.00;;;;;;8363475;28;19921;-47
2022/04/13 19:11:55;;;;;;;;;;;21.60;33.90;;;;;;8337376;28;19917;-47
2022/04/13 19:15:56;;;;;;;;;;;21.50;33.90;;;;;;8330657;28;19921;-46
2022/04/13 19:19:56;;;;;;;;;;;21.50;33.90;;;;;;8330346;28;19921;-47
2022/04/13 19:23:57;;;;;;;;;;;21.50;33.90;;;;;;8329554;28;19923;-45
2022/04/13 19:27:58;;;;;;;;;;;21.50;34.00;;;;;;8330048;28;20293;-47
2022/04/13 19:31:58;;;;;;;;;;;21.50;34.00;;;;;;8330095;28;20493;-48
2022/04/13 19:35:59;;;;;;;;;;;21.50;34.00;;;;;;8329749;28;19921;-50
2022/04/13 19:40:01;;;;;;;;;;;21.50;34.00;;;;;;8329935;28;19917;-47
2022/04/13 19:44:01;;;;;;;;;;;21.50;34.00;;;;;;8329944;28;20405;-46
2022/04/13 19:48:02;;;;;;;;;;;21.50;34.00;;;;;;8329229;28;19932;-49
2022/04/13 19:52:02;;;;;;;;;;;21.50;34.10;;;;;;8329910;28;19964;-47
2022/04/13 19:56:03;;;;;;;;;;;21.50;34.10;;;;;;8329870;28;19913;-47
2022/04/13 20:00:04;;;;;;;;;;;21.50;34.10;;;;;;8329574;28;19928;-48
2022/04/13 20:04:05;;;;;;;;;;;21.50;34.10;;;;;;8335274;28;20442;-48
2022/04/13 20:08:06;;;;;;;;;;;21.50;34.10;;;;;;8335908;28;19984;-50
2022/04/13 20:12:06;;;;;;;;;;;21.50;34.10;;;;;;8335268;28;19971;-49
2022/04/13 20:16:12;;;;;;;;;;;21.50;34.10;;;;;;8335989;28;19943;-49
2022/04/13 20:20:13;;;;;;;;;;;21.50;34.10;;;;;;8338683;28;20372;-48
2022/04/13 20:24:13;;;;;;;;;;;21.50;34.10;;;;;;8334980;28;20055;-45
2022/04/13 20:28:13;;;;;;;;;;;21.50;34.10;;;;;;8335160;28;19921;-45
2022/04/13 20:32:14;;;;;;;;;;;21.50;34.10;;;;;;8335169;28;19918;-46
2022/04/13 20:36:14;;;;;;;;;;;21.50;34.20;;;;;;8334827;28;19968;-47
2022/04/13 20:40:15;;;;;;;;;;;21.50;34.10;;;;;;8334717;28;19948;-47
2022/04/13 20:44:15;;;;;;;;;;;21.50;34.20;;;;;;8334736;28;19936;-50
2022/04/13 20:48:16;;;;;;;;;;;21.50;34.10;;;;;;8333965;28;19925;-49
2022/04/13 20:52:17;;;;;;;;;;;21.40;34.10;;;;;;8334383;28;19919;-48
2022/04/13 20:56:17;;;;;;;;;;;21.50;34.20;;;;;;8334603;28;19976;-46
2022/04/13 21:00:17;;;;;;;;;;;21.40;34.10;;;;;;8316205;28;19931;-46
2022/04/13 21:04:18;;;;;;;;;;;21.40;34.10;;;;;;8334346;28;19924;-46
2022/04/13 21:08:18;;;;;;;;;;;21.40;34.10;;;;;;8333931;28;20305;-46
2022/04/13 21:12:19;;;;;;;;;;;21.40;34.20;;;;;;8332625;28;20286;-48
2022/04/13 21:16:19;;;;;;;;;;;21.40;34.20;;;;;;8334111;28;19992;-47
2022/04/13 21:20:20;;;;;;;;;;;21.40;34.20;;;;;;8333804;28;19917;-48
2022/04/13 21:24:21;;;;;;;;;;;21.40;34.20;;;;;;8333062;28;19917;-46
2022/04/13 21:28:21;;;;;;;;;;;21.40;34.20;;;;;;8333300;28;20020;-48
2022/04/13 21:32:22;;;;;;;;;;;21.40;34.20;;;;;;8332907;28;20035;-46
2022/04/13 21:36:22;;;;;;;;;;;21.40;34.30;;;;;;8333369;28;19921;-47
2022/04/13 21:40:22;;;;;;;;;;;21.40;34.30;;;;;;8332931;28;19917;-46
2022/04/13 21:44:23;;;;;;;;;;;21.40;34.30;;;;;;8332481;28;19913;-51
2022/04/13 21:48:23;;;;;;;;;;;21.40;34.30;;;;;;8332487;28;20279;-47
2022/04/13 21:52:24;;;;;;;;;;;21.40;34.30;;;;;;8332586;28;19913;-47
2022/04/13 21:56:24;;;;;;;;;;;21.40;34.30;;;;;;8332255;28;19921;-47
2022/04/13 22:00:34;;;;;;;;;;;21.40;34.30;;;;;;8334757;28;19921;-48
2022/04/13 22:04:34;;;;;;;;;;;21.30;34.30;;;;;;8365412;28;20432;-47
2022/04/13 22:08:34;;;;;;;;;;;21.30;34.30;;;;;;8363553;28;19928;-47
2022/04/13 22:12:41;;;;;;;;;;;21.30;34.30;;;;;;8364910;28;19919;-45
2022/04/13 22:16:41;;;;;;;;;;;21.30;34.30;;;;;;8370420;28;19917;-46
2022/04/13 22:20:43;;;;;;;;;;;21.30;34.30;;;;;;8364483;28;19916;-46
2022/04/13 22:24:43;;;;;;;;;;;21.30;34.30;;;;;;8365468;28;19917;-47
2022/04/13 22:28:44;;;;;;;;;;;21.30;34.30;;;;;;8364579;28;19952;-49
2022/04/13 22:32:44;;;;;;;;;;;21.30;34.30;;;;;;8364270;28;19916;-48
2022/04/13 22:36:45;;;;;;;;;;;21.30;34.30;;;;;;8364890;28;19921;-47
2022/04/13 22:40:45;;;;;;;;;;;21.20;34.30;;;;;;8364196;28;20373;-50
2022/04/13 22:44:46;;;;;;;;;;;21.30;34.40;;;;;;8363557;28;19916;-46
2022/04/13 22:48:46;;;;;;;;;;;21.30;34.40;;;;;;8363753;28;19921;-48
2022/04/13 22:52:47;;;;;;;;;;;21.20;34.40;;;;;;8363917;28;19921;-47
2022/04/13 22:56:47;;;;;;;;;;;21.20;34.40;;;;;;8370512;28;20340;-47
2022/04/13 23:00:47;;;;;;;;;;;21.20;34.40;;;;;;8345329;28;19929;-48
2022/04/13 23:04:48;;;;;;;;;;;21.20;34.40;;;;;;8330478;28;19948;-46
2022/04/13 23:08:48;;;;;;;;;;;21.20;34.50;;;;;;8330067;28;19982;-50
2022/04/13 23:12:49;;;;;;;;;;;21.20;34.50;;;;;;8330375;28;19913;-47
2022/04/13 23:16:49;;;;;;;;;;;21.20;34.50;;;;;;8330492;28;20370;-49
2022/04/13 23:20:50;;;;;;;;;;;21.20;34.60;;;;;;8329802;28;19921;-47